Omskiy-141 — UGZK — position and weather

sailwx.info

Track history (hours):
 
Tides and Currents Weather Stations Pressure Air Temp Water Temp Dewpoint Dewpoint Depression Visibility Wind Speed Wind Dir Waves Ship Positions

Omskiy-141

Last reported at 2016-Jul-16 04:15 UTC. Time now 2016-Jul-24 01:07 UTC.
Position N 59°47' E 030°44'.

Length 108 m; draft 2.6 m.

Type: Cargo ship. MMSI: 273310600.

Date/timePositionNaut miles runAvg speedWind from/ knotsBaromVisibWave heightAir tempDewpointWater temp
2016-Jul-16 04:15N 59°47' E 030°44'3 4.0
2016-Jul-16 03:29N 59°48' E 030°38'3 3.4
2016-Jul-16 02:33N 59°50' E 030°34'5 4.8
2016-Jul-16 01:30N 59°54' E 030°27'3 3.6
2016-Jul-16 00:33N 59°57' E 030°24'2 1.7
2016-Jul-15 23:33N 59°57' E 030°21'4 3.7
2016-Jul-15 22:33N 59°55' E 030°15'0 0.5
2016-Jul-15 21:31N 59°55' E 030°14'0 0.0
2016-Jul-15 20:31N 59°55' E 030°14'0 0.0
2016-Jul-15 19:31N 59°55' E 030°14'0 0.0
2016-Jul-15 18:31N 59°55' E 030°14'0 0.0
2016-Jul-15 17:31N 59°55' E 030°14'0 0.0
2016-Jul-15 16:31N 59°55' E 030°14'0 0.0
2016-Jul-15 15:31N 59°55' E 030°14'0 0.0
2016-Jul-15 14:31N 59°55' E 030°14'0 0.0
2016-Jul-15 13:31N 59°55' E 030°14'0 0.0
2016-Jul-15 12:31N 59°55' E 030°14'0 0.0
2016-Jul-15 11:31N 59°55' E 030°14'0 0.0
2016-Jul-15 10:31N 59°55' E 030°14'0 0.0
2016-Jul-15 09:31N 59°55' E 030°14'0 0.0
2016-Jul-15 08:31N 59°55' E 030°14'5 5.0
2016-Jul-15 07:33N 59°54' E 030°04'8 8.5
2016-Jul-15 06:33N 59°58' E 029°49'19 7.7
2016-Jul-15 04:07N 60°01' E 029°12'5 8.2
2016-Jul-15 03:33N 60°01' E 029°03'8 8.4
2016-Jul-15 02:32N 60°02' E 028°46'9 8.6
2016-Jul-15 01:33N 60°03' E 028°29'9 8.7
2016-Jul-15 00:33N 60°07' E 028°14'9 8.7
2016-Jul-14 23:33N 60°09' E 027°57'8 8.3
2016-Jul-14 22:33N 60°09' E 027°40'26 8.4
2016-Jul-14 19:29N 59°58' E 026°53'8 8.5
2016-Jul-14 18:33N 59°59' E 026°37'9 8.7
2016-Jul-14 17:31N 59°57' E 026°20'10 8.4
2016-Jul-14 16:18N 59°54' E 025°60'15 8.4
2016-Jul-14 14:32N 59°50' E 025°31'18 8.7
2016-Jul-14 12:30N 59°46' E 024°57'9 9.0
2016-Jul-14 11:29N 59°44' E 024°40'9 8.9
2016-Jul-14 10:31N 59°42' E 024°23'13 8.7
2016-Jul-14 09:04N 59°40' E 023°59'5 8.7
2016-Jul-14 08:29N 59°38' E 023°49'9 8.7
2016-Jul-14 07:29N 59°36' E 023°32'8 7.8
2016-Jul-14 06:30N 59°36' E 023°17'36 8.3
2016-Jul-14 02:08N 59°36' E 022°05'5 8.7
2016-Jul-14 01:34N 59°36' E 021°55'9 8.6
2016-Jul-14 00:33N 59°36' E 021°38'9 8.6
2016-Jul-13 23:32N 59°36' E 021°21'  
2016-Jul-08 07:33N 59°36' E 021°20'8 7.7
2016-Jul-08 06:33N 59°36' E 021°35'15 7.7
2016-Jul-08 04:33N 59°36' E 022°05'30 7.4
2016-Jul-08 00:32N 59°38' E 023°04'8 7.7
2016-Jul-07 23:33N 59°40' E 023°19'7 7.4
2016-Jul-07 22:33N 59°42' E 023°33'8 7.9
2016-Jul-07 21:33N 59°43' E 023°48'83 7.2
2016-Jul-07 10:08N 60°01' E 026°29'4 7.1
2016-Jul-07 09:32N 60°01' E 026°37'42 7.1
2016-Jul-07 03:33N 60°10' E 028°01'8 7.8
2016-Jul-07 02:33N 60°08' E 028°16'8 7.7
2016-Jul-07 01:32N 60°04' E 028°28'8 7.9
2016-Jul-07 00:33N 60°03' E 028°44'31 7.7
2016-Jul-06 20:32N 59°59' E 029°45'8 8.2
2016-Jul-06 19:33N 59°55' E 029°60'7 6.7
2016-Jul-06 18:33N 59°54' E 030°13'2 1.7
2016-Jul-06 17:32N 59°55' E 030°15'0 0.0
2016-Jul-06 16:32N 59°55' E 030°15'0 0.0
2016-Jul-06 15:32N 59°55' E 030°15'0 0.0
2016-Jul-06 14:32N 59°55' E 030°15'0 0.0
2016-Jul-06 13:32N 59°55' E 030°15'0 0.0
2016-Jul-06 12:32N 59°55' E 030°15'0 0.0
2016-Jul-06 11:32N 59°55' E 030°15'0 0.0
2016-Jul-06 10:32N 59°55' E 030°15'0 0.0
2016-Jul-06 09:32N 59°55' E 030°15'0 0.0
2016-Jul-06 08:32N 59°55' E 030°15'0 0.0
2016-Jul-06 07:32N 59°55' E 030°15'0 0.0
2016-Jul-06 06:32N 59°55' E 030°15'0 0.0
2016-Jul-06 05:32N 59°55' E 030°15'0 0.0
2016-Jul-06 04:32N 59°55' E 030°15'  
Track history (hours):
 
Tides and Currents Weather Stations Pressure Air Temp Water Temp Dewpoint Dewpoint Depression Visibility Wind Speed Wind Dir Waves Ship Positions

Omskiy-141

Last reported at 2016-Jul-16 04:15 UTC. Time now 2016-Jul-24 01:07 UTC.
Position N 59°47' E 030°44'.

Length 108 m; draft 2.6 m.

Type: Cargo ship. MMSI: 273310600.

Date/timePositionNaut miles runAvg speedWind from/ knotsBaromVisibWave heightAir tempDewpointWater temp
2016-Jul-16 04:15N 59°47' E 030°44'3 4.0
2016-Jul-16 03:29N 59°48' E 030°38'3 3.4
2016-Jul-16 02:33N 59°50' E 030°34'5 4.8
2016-Jul-16 01:30N 59°54' E 030°27'3 3.6
2016-Jul-16 00:33N 59°57' E 030°24'2 1.7
2016-Jul-15 23:33N 59°57' E 030°21'4 3.7
2016-Jul-15 22:33N 59°55' E 030°15'0 0.5
2016-Jul-15 21:31N 59°55' E 030°14'0 0.0
2016-Jul-15 20:31N 59°55' E 030°14'0 0.0
2016-Jul-15 19:31N 59°55' E 030°14'0 0.0
2016-Jul-15 18:31N 59°55' E 030°14'0 0.0
2016-Jul-15 17:31N 59°55' E 030°14'0 0.0
2016-Jul-15 16:31N 59°55' E 030°14'0 0.0
2016-Jul-15 15:31N 59°55' E 030°14'0 0.0
2016-Jul-15 14:31N 59°55' E 030°14'0 0.0
2016-Jul-15 13:31N 59°55' E 030°14'0 0.0
2016-Jul-15 12:31N 59°55' E 030°14'0 0.0
2016-Jul-15 11:31N 59°55' E 030°14'0 0.0
2016-Jul-15 10:31N 59°55' E 030°14'0 0.0
2016-Jul-15 09:31N 59°55' E 030°14'0 0.0
2016-Jul-15 08:31N 59°55' E 030°14'5 5.0
2016-Jul-15 07:33N 59°54' E 030°04'8 8.5
2016-Jul-15 06:33N 59°58' E 029°49'19 7.7
2016-Jul-15 04:07N 60°01' E 029°12'5 8.2
2016-Jul-15 03:33N 60°01' E 029°03'8 8.4
2016-Jul-15 02:32N 60°02' E 028°46'9 8.6
2016-Jul-15 01:33N 60°03' E 028°29'9 8.7
2016-Jul-15 00:33N 60°07' E 028°14'9 8.7
2016-Jul-14 23:33N 60°09' E 027°57'8 8.3
2016-Jul-14 22:33N 60°09' E 027°40'26 8.4
2016-Jul-14 19:29N 59°58' E 026°53'8 8.5
2016-Jul-14 18:33N 59°59' E 026°37'9 8.7
2016-Jul-14 17:31N 59°57' E 026°20'10 8.4
2016-Jul-14 16:18N 59°54' E 025°60'15 8.4
2016-Jul-14 14:32N 59°50' E 025°31'18 8.7
2016-Jul-14 12:30N 59°46' E 024°57'9 9.0
2016-Jul-14 11:29N 59°44' E 024°40'9 8.9
2016-Jul-14 10:31N 59°42' E 024°23'13 8.7
2016-Jul-14 09:04N 59°40' E 023°59'5 8.7
2016-Jul-14 08:29N 59°38' E 023°49'9 8.7
2016-Jul-14 07:29N 59°36' E 023°32'8 7.8
2016-Jul-14 06:30N 59°36' E 023°17'36 8.3
2016-Jul-14 02:08N 59°36' E 022°05'5 8.7
2016-Jul-14 01:34N 59°36' E 021°55'9 8.6
2016-Jul-14 00:33N 59°36' E 021°38'9 8.6
2016-Jul-13 23:32N 59°36' E 021°21'  
2016-Jul-08 07:33N 59°36' E 021°20'8 7.7
2016-Jul-08 06:33N 59°36' E 021°35'15 7.7
2016-Jul-08 04:33N 59°36' E 022°05'30 7.4
2016-Jul-08 00:32N 59°38' E 023°04'8 7.7
2016-Jul-07 23:33N 59°40' E 023°19'7 7.4
2016-Jul-07 22:33N 59°42' E 023°33'8 7.9
2016-Jul-07 21:33N 59°43' E 023°48'83 7.2
2016-Jul-07 10:08N 60°01' E 026°29'4 7.1
2016-Jul-07 09:32N 60°01' E 026°37'42 7.1
2016-Jul-07 03:33N 60°10' E 028°01'8 7.8
2016-Jul-07 02:33N 60°08' E 028°16'8 7.7
2016-Jul-07 01:32N 60°04' E 028°28'8 7.9
2016-Jul-07 00:33N 60°03' E 028°44'31 7.7
2016-Jul-06 20:32N 59°59' E 029°45'8 8.2
2016-Jul-06 19:33N 59°55' E 029°60'7 6.7
2016-Jul-06 18:33N 59°54' E 030°13'2 1.7
2016-Jul-06 17:32N 59°55' E 030°15'0 0.0
2016-Jul-06 16:32N 59°55' E 030°15'0 0.0
2016-Jul-06 15:32N 59°55' E 030°15'0 0.0
2016-Jul-06 14:32N 59°55' E 030°15'0 0.0
2016-Jul-06 13:32N 59°55' E 030°15'0 0.0
2016-Jul-06 12:32N 59°55' E 030°15'0 0.0
2016-Jul-06 11:32N 59°55' E 030°15'0 0.0
2016-Jul-06 10:32N 59°55' E 030°15'0 0.0
2016-Jul-06 09:32N 59°55' E 030°15'0 0.0
2016-Jul-06 08:32N 59°55' E 030°15'0 0.0
2016-Jul-06 07:32N 59°55' E 030°15'0 0.0
2016-Jul-06 06:32N 59°55' E 030°15'0 0.0
2016-Jul-06 05:32N 59°55' E 030°15'0 0.0
2016-Jul-06 04:32N 59°55' E 030°15'  

Dump ship's entire track history